sensor_id;sensor_type;location;lat;lon;timestamp;temperature;humidity
16253;DHT22;8234;41.480;2.306;2022-10-17T00:06:54;20.10;99.90
16253;DHT22;8234;41.480;2.306;2022-10-17T00:16:58;20.10;99.90
16253;DHT22;8234;41.480;2.306;2022-10-17T00:27:03;20.00;99.90
16253;DHT22;8234;41.480;2.306;2022-10-17T00:37:07;20.00;99.90
16253;DHT22;8234;41.480;2.306;2022-10-17T00:47:16;19.80;99.90
16253;DHT22;8234;41.480;2.306;2022-10-17T00:57:22;19.90;99.90
16253;DHT22;8234;41.480;2.306;2022-10-17T01:07:28;20.00;99.90
16253;DHT22;8234;41.480;2.306;2022-10-17T01:17:46;20.20;99.90
16253;DHT22;8234;41.480;2.306;2022-10-17T01:28:05;20.10;99.90
16253;DHT22;8234;41.480;2.306;2022-10-17T01:38:20;20.10;99.90
16253;DHT22;8234;41.480;2.306;2022-10-17T01:48:29;20.10;99.90
16253;DHT22;8234;41.480;2.306;2022-10-17T01:58:38;20.10;99.90
16253;DHT22;8234;41.480;2.306;2022-10-17T02:08:45;20.00;99.90
16253;DHT22;8234;41.480;2.306;2022-10-17T02:19:10;20.20;99.90
16253;DHT22;8234;41.480;2.306;2022-10-17T02:29:16;20.20;99.90
16253;DHT22;8234;41.480;2.306;2022-10-17T02:39:24;20.30;99.90
16253;DHT22;8234;41.480;2.306;2022-10-17T02:49:33;20.20;99.90
16253;DHT22;8234;41.480;2.306;2022-10-17T02:59:40;20.30;99.90
16253;DHT22;8234;41.480;2.306;2022-10-17T03:09:46;20.20;99.90
16253;DHT22;8234;41.480;2.306;2022-10-17T03:19:52;20.30;99.90
16253;DHT22;8234;41.480;2.306;2022-10-17T03:29:55;20.80;99.90
16253;DHT22;8234;41.480;2.306;2022-10-17T03:40:00;21.10;99.90
16253;DHT22;8234;41.480;2.306;2022-10-17T03:50:05;21.10;99.90
16253;DHT22;8234;41.480;2.306;2022-10-17T04:00:12;21.20;99.90
16253;DHT22;8234;41.480;2.306;2022-10-17T04:10:16;21.20;99.90
16253;DHT22;8234;41.480;2.306;2022-10-17T04:20:21;21.10;99.90
16253;DHT22;8234;41.480;2.306;2022-10-17T04:30:25;21.10;99.90
16253;DHT22;8234;41.480;2.306;2022-10-17T04:40:30;21.20;99.90
16253;DHT22;8234;41.480;2.306;2022-10-17T04:50:34;21.10;99.90
16253;DHT22;8234;41.480;2.306;2022-10-17T05:00:39;20.90;99.90
16253;DHT22;8234;41.480;2.306;2022-10-17T05:10:44;20.70;99.90
16253;DHT22;8234;41.480;2.306;2022-10-17T05:20:50;20.60;99.90
16253;DHT22;8234;41.480;2.306;2022-10-17T05:30:54;20.40;99.90
16253;DHT22;8234;41.480;2.306;2022-10-17T05:41:01;20.40;99.90
16253;DHT22;8234;41.480;2.306;2022-10-17T05:51:06;20.30;99.90
16253;DHT22;8234;41.480;2.306;2022-10-17T06:01:13;20.20;99.90
16253;DHT22;8234;41.480;2.306;2022-10-17T06:11:17;20.30;99.90
16253;DHT22;8234;41.480;2.306;2022-10-17T06:21:24;20.50;99.90
16253;DHT22;8234;41.480;2.306;2022-10-17T06:31:28;20.60;99.90
16253;DHT22;8234;41.480;2.306;2022-10-17T06:41:34;20.60;99.90
16253;DHT22;8234;41.480;2.306;2022-10-17T06:51:37;21.00;99.90
16253;DHT22;8234;41.480;2.306;2022-10-17T07:01:43;21.30;99.90
16253;DHT22;8234;41.480;2.306;2022-10-17T07:11:48;21.80;99.90
16253;DHT22;8234;41.480;2.306;2022-10-17T07:21:53;22.10;99.90
16253;DHT22;8234;41.480;2.306;2022-10-17T07:31:57;22.40;99.90
16253;DHT22;8234;41.480;2.306;2022-10-17T07:42:04;22.90;99.90
16253;DHT22;8234;41.480;2.306;2022-10-17T07:52:09;23.20;99.90
16253;DHT22;8234;41.480;2.306;2022-10-17T08:02:19;23.00;99.90
16253;DHT22;8234;41.480;2.306;2022-10-17T08:12:24;23.40;99.90
16253;DHT22;8234;41.480;2.306;2022-10-17T08:22:31;23.70;99.90
16253;DHT22;8234;41.480;2.306;2022-10-17T08:32:34;24.10;99.90
16253;DHT22;8234;41.480;2.306;2022-10-17T08:43:05;24.40;99.90
16253;DHT22;8234;41.480;2.306;2022-10-17T08:53:16;24.70;99.90
16253;DHT22;8234;41.480;2.306;2022-10-17T09:03:37;24.70;99.90
16253;DHT22;8234;41.480;2.306;2022-10-17T09:13:51;24.30;99.90
16253;DHT22;8234;41.480;2.306;2022-10-17T09:24:02;24.40;99.90
16253;DHT22;8234;41.480;2.306;2022-10-17T09:34:16;24.60;99.90
16253;DHT22;8234;41.480;2.306;2022-10-17T09:44:28;25.40;99.90
16253;DHT22;8234;41.480;2.306;2022-10-17T09:54:40;25.30;99.90
16253;DHT22;8234;41.480;2.306;2022-10-17T10:04:57;25.20;99.90
16253;DHT22;8234;41.480;2.306;2022-10-17T10:15:34;25.50;99.90
16253;DHT22;8234;41.480;2.306;2022-10-17T10:25:48;25.50;99.90
16253;DHT22;8234;41.480;2.306;2022-10-17T10:35:58;25.80;99.90
16253;DHT22;8234;41.480;2.306;2022-10-17T10:46:17;26.10;99.90
16253;DHT22;8234;41.480;2.306;2022-10-17T10:56:24;25.90;99.90
16253;DHT22;8234;41.480;2.306;2022-10-17T11:06:33;26.80;99.90
16253;DHT22;8234;41.480;2.306;2022-10-17T11:16:43;26.90;99.90
16253;DHT22;8234;41.480;2.306;2022-10-17T11:26:54;27.40;99.90
16253;DHT22;8234;41.480;2.306;2022-10-17T11:37:01;27.50;99.90
16253;DHT22;8234;41.480;2.306;2022-10-17T11:47:13;27.80;99.90
16253;DHT22;8234;41.480;2.306;2022-10-17T11:57:34;27.50;99.90
16253;DHT22;8234;41.480;2.306;2022-10-17T12:07:46;27.80;99.90
16253;DHT22;8234;41.480;2.306;2022-10-17T12:17:54;27.70;99.90
16253;DHT22;8234;41.480;2.306;2022-10-17T12:28:14;26.90;99.90
16253;DHT22;8234;41.480;2.306;2022-10-17T12:38:21;27.10;99.90
16253;DHT22;8234;41.480;2.306;2022-10-17T12:49:01;26.90;99.90
16253;DHT22;8234;41.480;2.306;2022-10-17T12:59:08;27.40;99.90
16253;DHT22;8234;41.480;2.306;2022-10-17T13:09:23;26.90;99.90
16253;DHT22;8234;41.480;2.306;2022-10-17T13:19:30;26.60;99.90
16253;DHT22;8234;41.480;2.306;2022-10-17T13:29:43;26.80;99.90
16253;DHT22;8234;41.480;2.306;2022-10-17T13:39:47;25.60;99.90
16253;DHT22;8234;41.480;2.306;2022-10-17T13:49:59;25.20;99.90
16253;DHT22;8234;41.480;2.306;2022-10-17T14:00:06;25.40;99.90
16253;DHT22;8234;41.480;2.306;2022-10-17T14:10:20;26.30;99.90
16253;DHT22;8234;41.480;2.306;2022-10-17T14:20:25;25.90;99.90
16253;DHT22;8234;41.480;2.306;2022-10-17T14:30:52;27.50;99.90
16253;DHT22;8234;41.480;2.306;2022-10-17T14:41:00;29.30;99.90
16253;DHT22;8234;41.480;2.306;2022-10-17T14:51:27;29.10;99.90
16253;DHT22;8234;41.480;2.306;2022-10-17T15:01:45;28.20;99.90
16253;DHT22;8234;41.480;2.306;2022-10-17T15:11:51;27.60;99.90
16253;DHT22;8234;41.480;2.306;2022-10-17T15:21:55;25.70;99.90
16253;DHT22;8234;41.480;2.306;2022-10-17T15:32:00;25.90;99.90
16253;DHT22;8234;41.480;2.306;2022-10-17T15:42:06;26.10;99.90
16253;DHT22;8234;41.480;2.306;2022-10-17T15:52:12;25.30;99.90
16253;DHT22;8234;41.480;2.306;2022-10-17T16:02:17;25.20;99.90
16253;DHT22;8234;41.480;2.306;2022-10-17T16:12:26;24.80;99.90
16253;DHT22;8234;41.480;2.306;2022-10-17T16:22:33;24.80;99.90
16253;DHT22;8234;41.480;2.306;2022-10-17T16:32:39;24.80;99.90
16253;DHT22;8234;41.480;2.306;2022-10-17T16:42:44;24.50;99.90
16253;DHT22;8234;41.480;2.306;2022-10-17T16:52:49;24.30;99.90
16253;DHT22;8234;41.480;2.306;2022-10-17T17:02:53;23.90;99.90
16253;DHT22;8234;41.480;2.306;2022-10-17T17:12:58;23.90;99.90
16253;DHT22;8234;41.480;2.306;2022-10-17T17:23:03;23.80;99.90
16253;DHT22;8234;41.480;2.306;2022-10-17T17:33:08;23.70;99.90
16253;DHT22;8234;41.480;2.306;2022-10-17T17:43:12;23.50;99.90
16253;DHT22;8234;41.480;2.306;2022-10-17T17:53:18;23.20;99.90
16253;DHT22;8234;41.480;2.306;2022-10-17T18:03:22;23.30;99.90
16253;DHT22;8234;41.480;2.306;2022-10-17T18:13:27;23.30;99.90
16253;DHT22;8234;41.480;2.306;2022-10-17T18:23:31;23.40;99.90
16253;DHT22;8234;41.480;2.306;2022-10-17T18:33:37;23.50;99.90
16253;DHT22;8234;41.480;2.306;2022-10-17T18:43:42;23.50;99.90
16253;DHT22;8234;41.480;2.306;2022-10-17T18:53:48;23.10;99.90
16253;DHT22;8234;41.480;2.306;2022-10-17T19:03:56;23.10;99.90
16253;DHT22;8234;41.480;2.306;2022-10-17T19:14:03;22.90;99.90
16253;DHT22;8234;41.480;2.306;2022-10-17T19:24:11;23.00;99.90
16253;DHT22;8234;41.480;2.306;2022-10-17T19:34:16;22.90;99.90
16253;DHT22;8234;41.480;2.306;2022-10-17T19:44:21;22.80;99.90
16253;DHT22;8234;41.480;2.306;2022-10-17T19:54:26;23.00;99.90
16253;DHT22;8234;41.480;2.306;2022-10-17T20:04:30;22.90;99.90
16253;DHT22;8234;41.480;2.306;2022-10-17T20:14:35;23.10;99.90
16253;DHT22;8234;41.480;2.306;2022-10-17T20:24:42;23.00;99.90
16253;DHT22;8234;41.480;2.306;2022-10-17T20:34:47;22.80;99.90
16253;DHT22;8234;41.480;2.306;2022-10-17T20:44:51;22.60;99.90
16253;DHT22;8234;41.480;2.306;2022-10-17T20:54:57;22.60;99.90
16253;DHT22;8234;41.480;2.306;2022-10-17T21:05:01;22.40;99.90
16253;DHT22;8234;41.480;2.306;2022-10-17T21:15:09;22.00;99.90
16253;DHT22;8234;41.480;2.306;2022-10-17T21:25:13;21.60;99.90
16253;DHT22;8234;41.480;2.306;2022-10-17T21:35:18;21.30;99.90
16253;DHT22;8234;41.480;2.306;2022-10-17T21:45:22;21.10;99.90
16253;DHT22;8234;41.480;2.306;2022-10-17T21:55:28;21.10;99.90
16253;DHT22;8234;41.480;2.306;2022-10-17T22:05:32;21.10;99.90
16253;DHT22;8234;41.480;2.306;2022-10-17T22:15:37;21.10;99.90
16253;DHT22;8234;41.480;2.306;2022-10-17T22:25:41;21.10;99.90
16253;DHT22;8234;41.480;2.306;2022-10-17T22:35:46;21.00;99.90
16253;DHT22;8234;41.480;2.306;2022-10-17T22:45:53;20.80;99.90
16253;DHT22;8234;41.480;2.306;2022-10-17T22:56:01;20.70;99.90
16253;DHT22;8234;41.480;2.306;2022-10-17T23:06:05;20.60;99.90
16253;DHT22;8234;41.480;2.306;2022-10-17T23:16:10;20.40;99.90
16253;DHT22;8234;41.480;2.306;2022-10-17T23:26:14;20.30;99.90
16253;DHT22;8234;41.480;2.306;2022-10-17T23:36:19;20.30;99.90
16253;DHT22;8234;41.480;2.306;2022-10-17T23:46:23;20.40;99.90
16253;DHT22;8234;41.480;2.306;2022-10-17T23:56:29;20.40;99.90
